createdAt,value
2023-04-24T00:01:54.541Z,12.60
2023-04-24T00:04:21.201Z,12.60
2023-04-24T00:06:50.528Z,12.60
2023-04-24T00:09:17.038Z,12.60
2023-04-24T00:11:43.529Z,12.60
2023-04-24T00:14:10.001Z,12.70
2023-04-24T00:16:36.616Z,12.70
2023-04-24T00:19:03.114Z,12.70
2023-04-24T00:21:29.660Z,12.80
2023-04-24T00:23:56.144Z,12.80
2023-04-24T00:26:22.596Z,12.80
2023-04-24T00:28:49.147Z,12.80
2023-04-24T00:31:16.235Z,12.80
2023-04-24T00:33:42.781Z,12.80
2023-04-24T00:36:09.308Z,12.80
2023-04-24T00:38:35.902Z,12.70
2023-04-24T00:41:04.265Z,12.80
2023-04-24T00:43:30.815Z,12.70
2023-04-24T00:45:58.250Z,12.70
2023-04-24T00:48:25.862Z,12.70
2023-04-24T00:50:52.474Z,12.80
2023-04-24T00:53:19.040Z,12.80
2023-04-24T00:55:46.271Z,12.80
2023-04-24T00:58:13.786Z,12.70
2023-04-24T01:00:40.697Z,12.80
2023-04-24T01:03:08.138Z,12.80
2023-04-24T01:05:35.460Z,12.80
2023-04-24T01:08:02.662Z,12.80
2023-04-24T01:10:32.007Z,12.80
2023-04-24T01:12:59.757Z,12.90
2023-04-24T01:15:26.252Z,12.90
2023-04-24T01:17:53.294Z,12.90
2023-04-24T01:20:22.100Z,12.90
2023-04-24T01:22:49.040Z,12.90
2023-04-24T01:25:15.723Z,12.90
2023-04-24T01:27:42.265Z,12.70
2023-04-24T01:30:10.178Z,12.60
2023-04-24T01:32:37.803Z,12.40
2023-04-24T01:35:04.886Z,12.30
2023-04-24T01:37:33.157Z,12.00
2023-04-24T01:40:00.186Z,11.80
2023-04-24T01:42:26.981Z,11.70
2023-04-24T01:44:54.047Z,11.70
2023-04-24T01:47:20.655Z,11.60
2023-04-24T01:49:49.088Z,11.60
2023-04-24T01:52:15.900Z,11.60
2023-04-24T01:54:42.342Z,11.60
2023-04-24T01:57:09.462Z,11.50
2023-04-24T01:59:37.333Z,11.50
2023-04-24T02:02:04.604Z,11.50
2023-04-24T02:04:31.291Z,11.50
2023-04-24T02:06:57.782Z,11.40
2023-04-24T02:09:25.745Z,11.40
2023-04-24T02:11:52.284Z,11.40
2023-04-24T02:14:18.782Z,11.30
2023-04-24T02:16:45.348Z,11.30
2023-04-24T02:19:11.906Z,11.30
2023-04-24T02:21:38.386Z,11.40
2023-04-24T02:24:04.997Z,11.40
2023-04-24T02:26:32.713Z,11.30
2023-04-24T02:28:59.266Z,11.30
2023-04-24T02:31:25.847Z,11.40
2023-04-24T02:33:52.277Z,11.50
2023-04-24T02:36:18.874Z,11.50
2023-04-24T02:38:45.472Z,11.40
2023-04-24T02:41:13.324Z,11.40
2023-04-24T02:43:39.808Z,11.40
2023-04-24T02:46:06.326Z,11.40
2023-04-24T02:48:32.845Z,11.40
2023-04-24T02:50:59.438Z,11.40
2023-04-24T02:53:26.189Z,11.40
2023-04-24T02:55:52.686Z,11.40
2023-04-24T02:58:20.925Z,11.40
2023-04-24T03:00:48.254Z,11.40
2023-04-24T03:03:16.212Z,11.40
2023-04-24T03:05:45.778Z,11.40
2023-04-24T03:08:12.253Z,11.30
2023-04-24T03:10:38.804Z,11.30
2023-04-24T03:13:05.440Z,11.20
2023-04-24T03:15:32.157Z,11.20
2023-04-24T03:17:58.752Z,11.10
2023-04-24T03:20:25.442Z,11.00
2023-04-24T03:22:52.730Z,10.90
2023-04-24T03:25:19.580Z,10.80
2023-04-24T03:27:47.269Z,10.70
2023-04-24T03:30:40.823Z,10.70
2023-04-24T03:33:08.591Z,10.60
2023-04-24T03:35:38.928Z,10.60
2023-04-24T03:38:09.604Z,10.60
2023-04-24T03:40:38.730Z,10.60
2023-04-24T03:43:14.992Z,10.50
2023-04-24T03:45:42.258Z,10.40
2023-04-24T03:48:09.599Z,10.40
2023-04-24T03:50:37.149Z,10.40
2023-04-24T03:53:04.926Z,10.40
2023-04-24T03:55:38.854Z,10.40
2023-04-24T03:58:06.865Z,10.30
2023-04-24T04:00:34.197Z,10.40
2023-04-24T04:03:20.995Z,10.40
2023-04-24T04:05:47.973Z,10.40
2023-04-24T04:08:14.497Z,10.40
2023-04-24T04:10:41.356Z,10.50
2023-04-24T04:13:07.882Z,10.60
2023-04-24T04:15:35.634Z,10.60
2023-04-24T04:18:02.301Z,10.60
2023-04-24T04:20:29.794Z,10.70
2023-04-24T04:22:56.640Z,10.70
2023-04-24T04:25:34.240Z,10.80
2023-04-24T04:28:00.860Z,10.70
2023-04-24T04:30:30.306Z,10.70
2023-04-24T04:33:03.576Z,10.70
2023-04-24T04:35:31.366Z,10.70
2023-04-24T04:37:59.721Z,10.70
2023-04-24T04:40:36.452Z,10.60
2023-04-24T04:43:05.750Z,10.60
2023-04-24T04:45:39.790Z,10.60
2023-04-24T04:48:24.793Z,10.60
2023-04-24T04:50:52.318Z,10.60
2023-04-24T04:53:21.627Z,10.60
2023-04-24T04:55:48.194Z,10.60
2023-04-24T04:58:16.675Z,10.50
2023-04-24T05:00:45.278Z,10.60
2023-04-24T05:03:22.179Z,10.50
2023-04-24T05:05:56.779Z,10.50
2023-04-24T05:08:27.552Z,10.50
2023-04-24T05:10:55.926Z,10.50
2023-04-24T05:13:35.730Z,10.60
2023-04-24T05:16:08.553Z,10.70
2023-04-24T05:18:35.284Z,10.70
2023-04-24T05:21:02.382Z,10.70
2023-04-24T05:23:28.970Z,10.70
2023-04-24T05:25:57.317Z,10.60
2023-04-24T05:28:23.897Z,10.60
2023-04-24T05:31:03.965Z,10.70
2023-04-24T05:33:31.043Z,10.60
2023-04-24T05:35:57.562Z,10.70
2023-04-24T05:38:24.487Z,10.70
2023-04-24T05:40:51.099Z,10.70
2023-04-24T05:43:17.613Z,10.70
2023-04-24T05:45:44.546Z,10.70
2023-04-24T05:48:11.058Z,10.60
2023-04-24T05:50:37.722Z,10.50
2023-04-24T05:53:05.106Z,10.50
2023-04-24T05:55:37.768Z,10.60
2023-04-24T05:58:04.448Z,10.70
2023-04-24T06:00:31.329Z,10.80
2023-04-24T06:03:04.952Z,10.90
2023-04-24T06:05:33.515Z,10.90
2023-04-24T06:08:02.919Z,10.90
2023-04-24T06:10:34.278Z,10.90
2023-04-24T06:13:01.590Z,10.90
2023-04-24T06:15:34.191Z,11.00
2023-04-24T06:18:06.279Z,11.10
2023-04-24T06:20:33.826Z,11.10
2023-04-24T06:23:02.112Z,11.20
2023-04-24T06:25:28.800Z,11.30
2023-04-24T06:27:56.652Z,11.50
2023-04-24T06:30:23.498Z,11.70
2023-04-24T06:32:50.017Z,11.80
2023-04-24T06:35:16.692Z,11.70
2023-04-24T06:37:43.858Z,11.60
2023-04-24T06:40:10.897Z,11.50
2023-04-24T06:42:37.614Z,11.40
2023-04-24T06:45:06.032Z,11.30
2023-04-24T06:47:32.556Z,11.20
2023-04-24T06:49:59.342Z,11.20
2023-04-24T06:52:25.952Z,11.20
2023-04-24T06:54:52.484Z,11.30
2023-04-24T06:57:20.657Z,11.40
2023-04-24T06:59:47.120Z,11.60
2023-04-24T07:02:13.668Z,11.60
2023-04-24T07:04:40.750Z,11.70
2023-04-24T07:07:07.873Z,11.90
2023-04-24T07:09:36.224Z,11.90
2023-04-24T07:12:02.755Z,11.80
2023-04-24T07:14:29.205Z,11.80
2023-04-24T07:16:55.942Z,11.90
2023-04-24T07:19:22.483Z,11.90
2023-04-24T07:21:48.955Z,11.90
2023-04-24T07:24:15.416Z,11.80
2023-04-24T07:26:42.136Z,11.80
2023-04-24T07:29:08.807Z,11.70
2023-04-24T07:31:35.456Z,11.60
2023-04-24T07:34:02.259Z,11.70
2023-04-24T07:36:29.044Z,11.80
2023-04-24T07:38:57.449Z,12.00
2023-04-24T07:41:25.278Z,11.80
2023-04-24T07:43:52.247Z,11.60
2023-04-24T07:46:18.871Z,11.50
2023-04-24T07:48:45.632Z,11.40
2023-04-24T07:51:14.229Z,11.50
2023-04-24T07:53:41.084Z,11.50
2023-04-24T07:56:07.733Z,11.70
2023-04-24T07:58:35.266Z,11.90
2023-04-24T08:01:01.872Z,11.90
2023-04-24T08:03:28.491Z,11.80
2023-04-24T08:05:55.266Z,11.80
2023-04-24T08:08:23.310Z,11.70
2023-04-24T08:10:50.212Z,11.70
2023-04-24T08:13:17.017Z,11.60
2023-04-24T08:15:43.548Z,11.50
2023-04-24T08:18:12.816Z,11.50
2023-04-24T08:20:39.389Z,11.40
2023-04-24T08:23:05.933Z,11.40
2023-04-24T08:25:32.397Z,11.40
2023-04-24T08:27:58.923Z,11.40
2023-04-24T08:30:25.623Z,11.50
2023-04-24T08:32:52.248Z,11.60
2023-04-24T08:35:19.582Z,11.80
2023-04-24T08:37:46.174Z,11.90
2023-04-24T08:40:17.876Z,12.00
2023-04-24T08:42:45.520Z,11.90
2023-04-24T08:45:13.866Z,11.90
2023-04-24T08:47:42.006Z,11.90
2023-04-24T08:50:10.505Z,11.70
2023-04-24T08:52:37.568Z,11.60
2023-04-24T08:55:04.986Z,11.50
2023-04-24T08:57:32.218Z,11.50
2023-04-24T08:59:59.360Z,11.50
2023-04-24T09:02:26.473Z,11.50
2023-04-24T09:04:54.550Z,11.40
2023-04-24T09:07:23.197Z,11.40
2023-04-24T09:09:51.791Z,11.40
2023-04-24T09:12:19.515Z,11.40
2023-04-24T09:14:46.600Z,11.40
2023-04-24T09:17:13.716Z,11.30
2023-04-24T09:19:41.426Z,11.20
2023-04-24T09:22:09.966Z,11.20
2023-04-24T09:24:36.594Z,11.20
2023-04-24T09:27:03.213Z,11.20
2023-04-24T09:29:29.868Z,11.40
2023-04-24T09:31:56.692Z,11.70
2023-04-24T09:34:24.798Z,12.10
2023-04-24T09:36:51.912Z,12.30
2023-04-24T09:39:21.048Z,12.30
2023-04-24T09:41:57.249Z,12.30
2023-04-24T09:44:25.934Z,12.30
2023-04-24T09:46:59.820Z,12.20
2023-04-24T09:49:27.378Z,12.10
2023-04-24T09:52:04.350Z,12.00
2023-04-24T09:54:30.868Z,12.00
2023-04-24T09:56:57.876Z,11.90
2023-04-24T09:59:24.435Z,11.90
2023-04-24T10:01:51.654Z,11.90
2023-04-24T10:04:26.327Z,11.90
2023-04-24T10:06:55.728Z,11.80
2023-04-24T10:09:24.306Z,11.80
2023-04-24T10:11:53.749Z,11.90
2023-04-24T10:14:23.845Z,11.90
2023-04-24T10:16:53.501Z,11.80
2023-04-24T10:19:20.017Z,11.90
2023-04-24T10:21:49.350Z,12.10
2023-04-24T10:24:17.287Z,12.30
2023-04-24T10:26:45.448Z,12.60
2023-04-24T10:29:13.881Z,12.80
2023-04-24T10:31:41.323Z,13.00
2023-04-24T10:34:09.828Z,13.30
2023-04-24T10:36:39.948Z,13.50
2023-04-24T10:39:11.509Z,13.40
2023-04-24T10:41:38.763Z,13.50
2023-04-24T10:44:17.686Z,13.60
2023-04-24T10:46:46.077Z,13.60
2023-04-24T10:49:12.648Z,13.50
2023-04-24T10:51:47.531Z,13.40
2023-04-24T10:54:41.367Z,13.70
2023-04-24T10:57:23.416Z,13.70
2023-04-24T10:59:52.417Z,13.60
2023-04-24T11:02:36.163Z,13.50
2023-04-24T11:05:06.867Z,13.40
2023-04-24T11:08:11.449Z,13.20
2023-04-24T11:10:48.494Z,13.00
2023-04-24T11:13:18.275Z,12.80
2023-04-24T11:15:44.890Z,12.70
2023-04-24T11:18:16.482Z,12.70
2023-04-24T11:20:44.476Z,12.90
2023-04-24T11:23:13.715Z,12.90
2023-04-24T11:25:40.253Z,12.80
2023-04-24T11:28:07.074Z,12.70
2023-04-24T11:30:34.832Z,12.60
2023-04-24T11:33:05.909Z,12.50
2023-04-24T11:35:39.796Z,12.50
2023-04-24T11:40:38.849Z,13.00
2023-04-24T11:43:07.689Z,13.20
2023-04-24T11:45:34.771Z,13.30
2023-04-24T11:48:01.397Z,13.40
2023-04-24T11:50:28.818Z,13.40
2023-04-24T11:52:56.392Z,13.50
2023-04-24T11:55:23.688Z,13.60
2023-04-24T11:57:53.750Z,13.80
2023-04-24T12:00:26.043Z,13.80
2023-04-24T12:03:03.891Z,13.90
2023-04-24T12:05:32.527Z,14.10
2023-04-24T12:07:59.076Z,14.10
2023-04-24T12:10:27.823Z,14.10
2023-04-24T12:12:55.993Z,13.90
2023-04-24T12:15:23.443Z,13.80
2023-04-24T12:17:52.502Z,13.80
2023-04-24T12:20:28.699Z,13.90
2023-04-24T12:22:57.499Z,14.20
2023-04-24T12:25:32.678Z,14.20
2023-04-24T12:28:05.240Z,14.50
2023-04-24T12:30:33.939Z,14.80
2023-04-24T12:33:01.766Z,15.00
2023-04-24T12:35:30.898Z,15.00
2023-04-24T12:38:06.555Z,15.10
2023-04-24T12:40:33.271Z,15.20
2023-04-24T12:42:59.774Z,15.30
2023-04-24T12:45:28.174Z,15.40
2023-04-24T12:47:54.691Z,15.40
2023-04-24T12:50:21.264Z,15.30
2023-04-24T12:52:47.748Z,15.50
2023-04-24T12:55:14.283Z,15.60
2023-04-24T12:57:41.323Z,15.80
2023-04-24T13:00:09.178Z,15.70
2023-04-24T13:02:36.036Z,15.90
2023-04-24T13:05:03.259Z,15.80
2023-04-24T13:07:29.819Z,15.60
2023-04-24T13:09:57.839Z,15.20
2023-04-24T13:12:27.509Z,15.00
2023-04-24T13:14:54.701Z,14.80
2023-04-24T13:17:21.365Z,14.50
2023-04-24T13:19:51.071Z,14.30
2023-04-24T13:22:19.630Z,14.10
2023-04-24T13:24:46.070Z,14.20
2023-04-24T13:27:12.532Z,14.30
2023-04-24T13:29:39.009Z,14.30
2023-04-24T13:32:05.521Z,14.20
2023-04-24T13:34:32.145Z,14.20
2023-04-24T13:36:59.684Z,14.20
2023-04-24T13:39:27.117Z,14.30
2023-04-24T13:41:54.514Z,14.70
2023-04-24T13:44:22.108Z,14.90
2023-04-24T13:46:50.112Z,14.90
2023-04-24T13:49:17.230Z,15.30
2023-04-24T13:51:44.582Z,15.80
2023-04-24T13:54:11.129Z,16.10
2023-04-24T13:56:37.692Z,16.10
2023-04-24T13:59:04.148Z,16.10
2023-04-24T14:01:30.738Z,15.80
2023-04-24T14:03:57.826Z,15.80
2023-04-24T14:06:24.714Z,15.70
2023-04-24T14:08:51.567Z,15.70
2023-04-24T14:11:19.144Z,15.70
2023-04-24T14:13:46.910Z,15.50
2023-04-24T14:16:13.689Z,15.30
2023-04-24T14:18:40.178Z,15.10
2023-04-24T14:21:07.019Z,15.00
2023-04-24T14:23:33.609Z,14.80
2023-04-24T14:26:00.418Z,14.70
2023-04-24T14:28:27.485Z,14.50
2023-04-24T14:30:54.344Z,14.30
2023-04-24T14:33:20.935Z,14.20
2023-04-24T14:35:47.452Z,14.20
2023-04-24T14:38:14.054Z,14.40
2023-04-24T14:43:10.880Z,14.80
2023-04-24T14:45:38.896Z,14.70
2023-04-24T14:48:05.575Z,14.70
2023-04-24T14:50:32.171Z,14.90
2023-04-24T14:52:58.857Z,14.90
2023-04-24T14:55:27.064Z,14.90
2023-04-24T14:57:54.129Z,14.90
2023-04-24T15:00:21.670Z,14.90
2023-04-24T15:02:48.309Z,14.80
2023-04-24T15:05:15.367Z,14.70
2023-04-24T15:07:46.349Z,14.60
2023-04-24T15:10:12.970Z,14.70
2023-04-24T15:12:39.696Z,14.70
2023-04-24T15:15:07.070Z,14.80
2023-04-24T15:17:33.633Z,14.90
2023-04-24T15:20:01.678Z,15.00
2023-04-24T15:22:28.353Z,15.30
2023-04-24T15:24:54.837Z,15.40
2023-04-24T15:27:21.364Z,15.80
2023-04-24T15:29:47.906Z,16.00
2023-04-24T15:32:14.438Z,16.20
2023-04-24T15:34:41.248Z,16.20
2023-04-24T15:37:07.860Z,16.30
2023-04-24T15:39:34.327Z,16.20
2023-04-24T15:42:01.497Z,16.20
2023-04-24T15:44:27.989Z,16.20
2023-04-24T15:46:55.559Z,16.30
2023-04-24T15:49:22.075Z,16.20
2023-04-24T15:51:48.530Z,16.20
2023-04-24T15:54:15.005Z,16.10
2023-04-24T15:56:41.474Z,15.80
2023-04-24T15:59:08.078Z,16.00
2023-04-24T16:01:34.725Z,16.00
2023-04-24T16:04:01.499Z,16.20
2023-04-24T16:06:28.460Z,16.30
2023-04-24T16:08:57.273Z,16.40
2023-04-24T16:11:25.272Z,16.60
2023-04-24T16:13:51.748Z,16.80
2023-04-24T16:16:18.432Z,17.00
2023-04-24T16:18:45.082Z,16.70
2023-04-24T16:21:11.634Z,16.30
2023-04-24T16:23:38.112Z,15.80
2023-04-24T16:26:04.803Z,15.60
2023-04-24T16:28:31.279Z,15.40
2023-04-24T16:30:58.114Z,15.20
2023-04-24T16:33:26.424Z,15.00
2023-04-24T16:35:53.039Z,15.00
2023-04-24T16:38:19.564Z,14.80
2023-04-24T16:40:46.148Z,14.70
2023-04-24T16:43:12.624Z,14.50
2023-04-24T16:45:39.208Z,14.30
2023-04-24T16:48:05.909Z,14.20
2023-04-24T16:50:32.820Z,14.20
2023-04-24T16:52:59.327Z,14.10
2023-04-24T16:55:26.307Z,14.00
2023-04-24T16:57:53.170Z,14.00
2023-04-24T17:00:19.792Z,13.90
2023-04-24T17:02:48.585Z,13.80
2023-04-24T17:05:15.602Z,13.80
2023-04-24T17:07:42.258Z,13.70
2023-04-24T17:10:09.280Z,13.70
2023-04-24T17:12:35.894Z,13.70
2023-04-24T17:15:02.528Z,13.70
2023-04-24T17:17:29.096Z,13.60
2023-04-24T17:19:55.602Z,13.60
2023-04-24T17:22:22.078Z,13.60
2023-04-24T17:24:48.580Z,13.50
2023-04-24T17:27:15.621Z,13.50
2023-04-24T17:29:42.569Z,13.30
2023-04-24T17:32:09.398Z,13.10
2023-04-24T17:34:36.382Z,13.00
2023-04-24T17:37:04.178Z,12.90
2023-04-24T17:39:31.205Z,12.90
2023-04-24T17:41:58.152Z,12.80
2023-04-24T17:44:24.702Z,12.80
2023-04-24T17:46:51.275Z,12.80
2023-04-24T17:49:17.780Z,12.80
2023-04-24T17:51:44.239Z,12.90
2023-04-24T17:54:10.719Z,12.90
2023-04-24T17:56:37.341Z,12.90
2023-04-24T17:59:03.913Z,12.90
2023-04-24T18:01:30.529Z,12.80
2023-04-24T18:03:57.353Z,12.70
2023-04-24T18:06:23.947Z,12.70
2023-04-24T18:08:50.729Z,12.60
2023-04-24T18:11:17.430Z,12.50
2023-04-24T18:13:43.980Z,12.50
2023-04-24T18:16:10.508Z,12.50
2023-04-24T18:18:36.966Z,12.50
2023-04-24T18:21:03.909Z,12.50
2023-04-24T18:23:30.401Z,12.50
2023-04-24T18:25:56.847Z,12.50
2023-04-24T18:28:23.277Z,12.50
2023-04-24T18:30:49.781Z,12.50
2023-04-24T18:33:16.355Z,12.50
2023-04-24T18:35:43.031Z,12.50
2023-04-24T18:38:09.488Z,12.50
2023-04-24T18:40:36.548Z,12.40
2023-04-24T18:43:03.021Z,12.40
2023-04-24T18:45:29.593Z,12.30
2023-04-24T18:47:56.122Z,12.30
2023-04-24T18:50:22.669Z,12.30
2023-04-24T18:52:49.131Z,12.30
2023-04-24T18:55:15.635Z,12.30
2023-04-24T18:57:42.091Z,12.30
2023-04-24T19:00:09.059Z,12.20
2023-04-24T19:02:35.755Z,12.20
2023-04-24T19:05:03.362Z,12.20
2023-04-24T19:07:29.790Z,12.30
2023-04-24T19:09:56.254Z,12.30
2023-04-24T19:12:23.026Z,12.30
2023-04-24T19:14:49.703Z,12.20
2023-04-24T19:17:22.401Z,12.20
2023-04-24T19:19:48.988Z,12.20
2023-04-24T19:22:15.689Z,12.10
2023-04-24T19:24:42.203Z,12.10
2023-04-24T19:27:08.781Z,12.10
2023-04-24T19:29:35.321Z,12.10
2023-04-24T19:32:01.888Z,12.10
2023-04-24T19:34:29.896Z,12.10
2023-04-24T19:36:56.416Z,12.20
2023-04-24T19:39:22.904Z,12.10
2023-04-24T19:41:49.396Z,12.10
2023-04-24T19:44:17.185Z,12.10
2023-04-24T19:46:43.960Z,12.10
2023-04-24T19:49:10.642Z,12.00
2023-04-24T19:51:37.622Z,11.90
2023-04-24T19:54:06.206Z,11.80
2023-04-24T19:56:33.066Z,11.80
2023-04-24T19:58:59.548Z,11.80
2023-04-24T20:01:26.169Z,11.80
2023-04-24T20:03:52.864Z,11.80
2023-04-24T20:06:19.415Z,11.80
2023-04-24T20:08:46.065Z,11.80
2023-04-24T20:11:14.086Z,11.70
2023-04-24T20:13:41.250Z,11.60
2023-04-24T20:16:09.673Z,11.50
2023-04-24T20:18:37.711Z,11.40
2023-04-24T20:21:04.155Z,11.40
2023-04-24T20:23:30.768Z,11.40
2023-04-24T20:26:00.868Z,11.40
2023-04-24T20:28:28.926Z,11.40
2023-04-24T20:30:55.692Z,11.40
2023-04-24T20:33:22.426Z,11.30
2023-04-24T20:35:49.628Z,11.20
2023-04-24T20:38:18.344Z,11.10
2023-04-24T20:40:56.634Z,11.00
2023-04-24T20:43:28.391Z,10.80
2023-04-24T20:45:56.341Z,10.60
2023-04-24T20:48:22.787Z,10.50
2023-04-24T20:50:50.141Z,10.50
2023-04-24T20:53:16.620Z,10.30
2023-04-24T20:55:43.231Z,10.30
2023-04-24T20:58:09.961Z,10.30
2023-04-24T21:00:36.476Z,10.30
2023-04-24T21:03:03.293Z,10.30
2023-04-24T21:05:29.881Z,10.20
2023-04-24T21:07:56.467Z,10.20
2023-04-24T21:10:25.029Z,10.20
2023-04-24T21:12:52.184Z,10.20
2023-04-24T21:15:18.652Z,10.20
2023-04-24T21:17:45.925Z,10.30
2023-04-24T21:20:12.692Z,10.30
2023-04-24T21:22:39.136Z,10.40
2023-04-24T21:25:06.116Z,10.50
2023-04-24T21:27:32.693Z,10.40
2023-04-24T21:29:59.319Z,10.40
2023-04-24T21:32:25.959Z,10.40
2023-04-24T21:34:52.543Z,10.40
2023-04-24T21:37:18.977Z,10.40
2023-04-24T21:39:45.508Z,10.40
2023-04-24T21:42:11.940Z,10.50
2023-04-24T21:44:38.437Z,10.50
2023-04-24T21:47:04.920Z,10.60
2023-04-24T21:49:31.374Z,10.50
2023-04-24T21:51:57.814Z,10.50
2023-04-24T21:54:24.347Z,10.50
2023-04-24T21:56:50.939Z,10.50
2023-04-24T21:59:17.928Z,10.60
2023-04-24T22:01:44.624Z,10.60
2023-04-24T22:04:11.440Z,10.60
2023-04-24T22:06:38.196Z,10.50
2023-04-24T22:09:05.798Z,10.50
2023-04-24T22:11:32.370Z,10.50
2023-04-24T22:13:58.853Z,10.40
2023-04-24T22:16:25.511Z,10.40
2023-04-24T22:18:55.082Z,10.40
2023-04-24T22:21:22.804Z,10.40
2023-04-24T22:23:49.732Z,10.50
2023-04-24T22:26:16.326Z,10.50
2023-04-24T22:28:42.882Z,10.50
2023-04-24T22:31:09.545Z,10.50
2023-04-24T22:33:36.261Z,10.50
2023-04-24T22:36:02.795Z,10.50
2023-04-24T22:38:29.281Z,10.50
2023-04-24T22:40:55.892Z,10.50
2023-04-24T22:43:22.402Z,10.50
2023-04-24T22:45:48.905Z,10.50
2023-04-24T22:48:16.325Z,10.60
2023-04-24T22:50:42.834Z,10.60
2023-04-24T22:53:09.348Z,10.60
2023-04-24T22:55:36.246Z,10.60
2023-04-24T22:58:02.820Z,10.60
2023-04-24T23:00:29.408Z,10.60
2023-04-24T23:02:56.000Z,10.60
2023-04-24T23:05:23.001Z,10.60
2023-04-24T23:07:49.503Z,10.50
2023-04-24T23:10:16.358Z,10.40
2023-04-24T23:12:43.620Z,10.50
2023-04-24T23:15:11.892Z,10.50
2023-04-24T23:17:38.457Z,10.50
2023-04-24T23:20:05.926Z,10.50
2023-04-24T23:22:32.558Z,10.50
2023-04-24T23:24:59.004Z,10.40
2023-04-24T23:27:25.514Z,10.40
2023-04-24T23:29:51.959Z,10.40
2023-04-24T23:32:18.512Z,10.30
2023-04-24T23:34:45.658Z,10.30
2023-04-24T23:37:12.248Z,10.30
2023-04-24T23:39:38.749Z,10.30
2023-04-24T23:42:05.342Z,10.30
2023-04-24T23:44:31.797Z,10.30
2023-04-24T23:46:58.267Z,10.30
2023-04-24T23:49:24.767Z,10.20
2023-04-24T23:51:52.205Z,10.20
2023-04-24T23:54:19.362Z,10.20
2023-04-24T23:56:47.807Z,10.10
2023-04-24T23:59:15.313Z,10.10
